sensor_id;sensor_type;location;lat;lon;timestamp;pressure;altitude;pressure_sealevel;temperature;humidity
76478;BME280;65309;49.790;18.972;2023-07-22T00:02:55;59936.16;;;-145.46;87.29
76478;BME280;65309;49.790;18.972;2023-07-22T00:07:57;59929.88;;;-145.46;87.67
76478;BME280;65309;49.790;18.972;2023-07-22T00:13:01;59936.16;;;-145.46;88.25
76478;BME280;65309;49.790;18.972;2023-07-22T00:18:03;59944.56;;;-145.46;88.78
76478;BME280;65309;49.790;18.972;2023-07-22T00:23:05;59921.47;;;-145.46;88.73
76478;BME280;65309;49.790;18.972;2023-07-22T00:28:08;59873.09;;;-145.46;89.52
76478;BME280;65309;49.790;18.972;2023-07-22T00:33:10;59892.03;;;-145.46;90.12
76478;BME280;65309;49.790;18.972;2023-07-22T00:38:12;59923.56;;;-145.46;90.13
76478;BME280;65309;49.790;18.972;2023-07-22T00:43:15;59889.94;;;-145.46;90.60
76478;BME280;65309;49.790;18.972;2023-07-22T00:48:19;59919.34;;;-145.46;90.46
76478;BME280;65309;49.790;18.972;2023-07-22T00:53:21;59910.94;;;-145.46;90.21
76478;BME280;65309;49.790;18.972;2023-07-22T00:58:25;59887.81;;;-145.46;90.02
76478;BME280;65309;49.790;18.972;2023-07-22T01:03:27;59931.97;;;-145.46;90.26
76478;BME280;65309;49.790;18.972;2023-07-22T01:08:30;59946.69;;;-145.46;90.63
76478;BME280;65309;49.790;18.972;2023-07-22T01:13:33;59906.75;;;-145.46;90.56
76478;BME280;65309;49.790;18.972;2023-07-22T01:18:35;59953.00;;;-145.46;90.44
76478;BME280;65309;49.790;18.972;2023-07-22T01:23:39;59898.34;;;-145.46;90.67
76478;BME280;65309;49.790;18.972;2023-07-22T01:28:41;59910.94;;;-145.46;89.86
76478;BME280;65309;49.790;18.972;2023-07-22T01:33:44;59919.34;;;-145.46;89.26
76478;BME280;65309;49.790;18.972;2023-07-22T01:38:48;59927.75;;;-145.46;88.39
76478;BME280;65309;49.790;18.972;2023-07-22T01:43:50;59904.63;;;-145.46;88.33
76478;BME280;65309;49.790;18.972;2023-07-22T01:48:52;59873.09;;;-145.46;87.14
76478;BME280;65309;49.790;18.972;2023-07-22T01:53:55;59921.47;;;-145.46;85.92
76478;BME280;65309;49.790;18.972;2023-07-22T01:58:58;59864.69;;;-145.46;84.47
76478;BME280;65309;49.790;18.972;2023-07-22T02:04:00;59894.13;;;-145.46;81.64
76478;BME280;65309;49.790;18.972;2023-07-22T02:09:04;59910.94;;;-145.46;81.87
76478;BME280;65309;49.790;18.972;2023-07-22T02:14:10;59925.66;;;-145.46;81.50
76478;BME280;65309;49.790;18.972;2023-07-22T02:19:12;59908.84;;;-145.46;80.85
76478;BME280;65309;49.790;18.972;2023-07-22T02:24:15;59883.63;;;-145.46;80.85
76478;BME280;65309;49.790;18.972;2023-07-22T02:29:18;59902.53;;;-145.46;82.01
76478;BME280;65309;49.790;18.972;2023-07-22T02:34:21;59898.34;;;-145.46;83.10
76478;BME280;65309;49.790;18.972;2023-07-22T02:39:25;59889.94;;;-145.46;85.12
76478;BME280;65309;49.790;18.972;2023-07-22T02:44:27;59885.72;;;-145.46;86.21
76478;BME280;65309;49.790;18.972;2023-07-22T02:49:29;59934.06;;;-145.46;87.55
76478;BME280;65309;49.790;18.972;2023-07-22T02:54:38;59936.16;;;-145.46;87.77
76478;BME280;65309;49.790;18.972;2023-07-22T02:59:41;59919.34;;;-145.46;89.03
76478;BME280;65309;49.790;18.972;2023-07-22T03:04:43;59894.13;;;-145.46;90.05
76478;BME280;65309;49.790;18.972;2023-07-22T03:09:46;59910.94;;;-145.46;89.53
76478;BME280;65309;49.790;18.972;2023-07-22T03:14:48;59938.28;;;-145.46;89.11
76478;BME280;65309;49.790;18.972;2023-07-22T03:19:50;59906.75;;;-145.46;87.94
76478;BME280;65309;49.790;18.972;2023-07-22T03:24:54;59957.19;;;-145.46;86.61
76478;BME280;65309;49.790;18.972;2023-07-22T03:29:56;59929.88;;;-145.46;85.75
76478;BME280;65309;49.790;18.972;2023-07-22T03:34:58;59898.34;;;-145.46;85.11
76478;BME280;65309;49.790;18.972;2023-07-22T03:40:01;59902.53;;;-145.46;85.01
76478;BME280;65309;49.790;18.972;2023-07-22T03:45:05;59883.63;;;-145.46;85.75
76478;BME280;65309;49.790;18.972;2023-07-22T03:50:08;59902.53;;;-145.46;85.84
76478;BME280;65309;49.790;18.972;2023-07-22T03:55:11;59925.66;;;-145.46;84.96
76478;BME280;65309;49.790;18.972;2023-07-22T04:00:14;59936.16;;;-145.46;83.60
76478;BME280;65309;49.790;18.972;2023-07-22T04:05:16;59929.88;;;-145.46;81.03
76478;BME280;65309;49.790;18.972;2023-07-22T04:10:19;59906.75;;;-145.46;80.75
76478;BME280;65309;49.790;18.972;2023-07-22T04:15:21;59904.63;;;-145.46;79.44
76478;BME280;65309;49.790;18.972;2023-07-22T04:20:23;59902.53;;;-145.46;78.08
76478;BME280;65309;49.790;18.972;2023-07-22T04:25:28;59906.75;;;-145.46;77.02
76478;BME280;65309;49.790;18.972;2023-07-22T04:30:30;59877.31;;;-145.46;77.65
76478;BME280;65309;49.790;18.972;2023-07-22T04:35:34;59877.31;;;-145.46;76.19
76478;BME280;65309;49.790;18.972;2023-07-22T04:40:42;59946.69;;;-145.46;76.19
76478;BME280;65309;49.790;18.972;2023-07-22T04:45:44;59868.91;;;-145.46;77.16
76478;BME280;65309;49.790;18.972;2023-07-22T04:50:46;59923.56;;;-145.46;77.91
76478;BME280;65309;49.790;18.972;2023-07-22T04:55:50;59873.09;;;-145.46;77.13
76478;BME280;65309;49.790;18.972;2023-07-22T05:00:52;59845.78;;;-145.46;75.34
76478;BME280;65309;49.790;18.972;2023-07-22T05:05:54;59910.94;;;-145.46;75.27
76478;BME280;65309;49.790;18.972;2023-07-22T05:10:58;59925.66;;;-145.46;77.70
76478;BME280;65309;49.790;18.972;2023-07-22T05:16:00;59913.03;;;-145.46;78.62
76478;BME280;65309;49.790;18.972;2023-07-22T05:21:02;59919.34;;;-145.46;77.89
76478;BME280;65309;49.790;18.972;2023-07-22T05:26:05;59940.38;;;-145.46;78.12
76478;BME280;65309;49.790;18.972;2023-07-22T05:31:07;59942.47;;;-145.46;77.93
76478;BME280;65309;49.790;18.972;2023-07-22T05:36:09;59866.81;;;-145.46;76.76
76478;BME280;65309;49.790;18.972;2023-07-22T05:41:13;59904.63;;;-145.46;75.41
76478;BME280;65309;49.790;18.972;2023-07-22T05:46:15;59902.53;;;-145.46;76.52
76478;BME280;65309;49.790;18.972;2023-07-22T05:51:17;59915.16;;;-145.46;77.32
76478;BME280;65309;49.790;18.972;2023-07-22T05:56:20;59940.38;;;-145.46;75.37
76478;BME280;65309;49.790;18.972;2023-07-22T06:01:23;59934.06;;;-145.46;74.02
76478;BME280;65309;49.790;18.972;2023-07-22T06:06:25;59894.13;;;-145.46;73.66
76478;BME280;65309;49.790;18.972;2023-07-22T06:11:28;59908.84;;;-145.46;73.63
76478;BME280;65309;49.790;18.972;2023-07-22T06:16:30;59915.16;;;-145.46;73.08
76478;BME280;65309;49.790;18.972;2023-07-22T06:21:32;59902.53;;;-145.46;74.52
76478;BME280;65309;49.790;18.972;2023-07-22T06:26:35;59917.25;;;-145.46;74.07
76478;BME280;65309;49.790;18.972;2023-07-22T06:31:38;59931.97;;;-145.46;72.64
76478;BME280;65309;49.790;18.972;2023-07-22T06:36:40;59925.66;;;-145.46;72.66
76478;BME280;65309;49.790;18.972;2023-07-22T06:41:44;59900.44;;;-145.46;71.14
76478;BME280;65309;49.790;18.972;2023-07-22T06:46:46;59896.22;;;-145.46;73.97
76478;BME280;65309;49.790;18.972;2023-07-22T06:51:48;59915.16;;;-145.46;73.22
76478;BME280;65309;49.790;18.972;2023-07-22T06:56:51;59940.38;;;-145.46;72.05
76478;BME280;65309;49.790;18.972;2023-07-22T07:01:53;59915.16;;;-145.46;73.14
76478;BME280;65309;49.790;18.972;2023-07-22T07:06:56;59900.44;;;-145.46;72.12
76478;BME280;65309;49.790;18.972;2023-07-22T07:11:59;59919.34;;;-145.46;69.04
76478;BME280;65309;49.790;18.972;2023-07-22T07:17:02;59902.53;;;-145.46;70.08
76478;BME280;65309;49.790;18.972;2023-07-22T07:22:04;59892.03;;;-145.46;68.68
76478;BME280;65309;49.790;18.972;2023-07-22T07:27:08;59931.97;;;-145.46;65.54
76478;BME280;65309;49.790;18.972;2023-07-22T07:32:10;59877.31;;;-145.46;62.53
76478;BME280;65309;49.790;18.972;2023-07-22T07:37:12;59871.00;;;-145.46;65.85
76478;BME280;65309;49.790;18.972;2023-07-22T07:42:15;59894.13;;;-145.46;63.49
76478;BME280;65309;49.790;18.972;2023-07-22T07:47:17;59871.00;;;-145.46;62.41
76478;BME280;65309;49.790;18.972;2023-07-22T07:52:20;59873.09;;;-145.46;60.50
76478;BME280;65309;49.790;18.972;2023-07-22T07:57:23;59877.31;;;-145.46;60.98
76478;BME280;65309;49.790;18.972;2023-07-22T08:02:25;59831.06;;;-145.46;61.92
76478;BME280;65309;49.790;18.972;2023-07-22T08:07:28;59856.28;;;-145.46;60.68
76478;BME280;65309;49.790;18.972;2023-07-22T08:12:31;59917.25;;;-145.46;61.68
76478;BME280;65309;49.790;18.972;2023-07-22T08:17:33;59862.59;;;-145.46;61.80
76478;BME280;65309;49.790;18.972;2023-07-22T08:22:36;59906.75;;;-145.46;62.58
76478;BME280;65309;49.790;18.972;2023-07-22T08:27:39;59900.44;;;-145.46;63.09
76478;BME280;65309;49.790;18.972;2023-07-22T08:32:41;59860.50;;;-145.46;60.81
76478;BME280;65309;49.790;18.972;2023-07-22T08:37:43;59868.91;;;-145.46;62.01
76478;BME280;65309;49.790;18.972;2023-07-22T08:42:48;59818.44;;;-145.46;56.98
76478;BME280;65309;49.790;18.972;2023-07-22T08:47:54;59843.69;;;-145.46;58.24
76478;BME280;65309;49.790;18.972;2023-07-22T08:53:00;59873.09;;;-145.46;58.23
76478;BME280;65309;49.790;18.972;2023-07-22T08:58:04;59868.91;;;-145.46;59.27
76478;BME280;65309;49.790;18.972;2023-07-22T09:03:06;59868.91;;;-145.46;61.99
76478;BME280;65309;49.790;18.972;2023-07-22T09:08:10;59889.94;;;-145.46;62.01
76478;BME280;65309;49.790;18.972;2023-07-22T09:13:14;59860.50;;;-145.46;61.62
76478;BME280;65309;49.790;18.972;2023-07-22T09:18:18;59835.28;;;-145.46;57.32
76478;BME280;65309;49.790;18.972;2023-07-22T09:23:31;59826.84;;;-145.46;57.77
76478;BME280;65309;49.790;18.972;2023-07-22T09:28:52;59774.31;;;-145.46;55.66
76478;BME280;65309;49.790;18.972;2023-07-22T09:33:54;59877.31;;;-145.46;57.14
76478;BME280;65309;49.790;18.972;2023-07-22T09:39:00;59812.16;;;-145.46;55.94
76478;BME280;65309;49.790;18.972;2023-07-22T09:44:09;59784.81;;;-145.46;54.08
76478;BME280;65309;49.790;18.972;2023-07-22T09:49:12;59789.03;;;-145.46;53.96
76478;BME280;65309;49.790;18.972;2023-07-22T09:54:14;59858.41;;;-145.46;54.40
76478;BME280;65309;49.790;18.972;2023-07-22T09:59:18;59820.56;;;-145.46;50.48
76478;BME280;65309;49.790;18.972;2023-07-22T10:04:24;59818.44;;;-145.46;52.18
76478;BME280;65309;49.790;18.972;2023-07-22T10:09:28;59765.91;;;-145.46;50.27
76478;BME280;65309;49.790;18.972;2023-07-22T10:14:32;59826.84;;;-145.46;50.77
76478;BME280;65309;49.790;18.972;2023-07-22T10:19:39;59812.16;;;-145.46;51.38
76478;BME280;65309;49.790;18.972;2023-07-22T10:24:41;59810.03;;;-145.46;48.01
76478;BME280;65309;49.790;18.972;2023-07-22T10:29:47;59831.06;;;-145.46;49.49
76478;BME280;65309;49.790;18.972;2023-07-22T10:34:49;59759.59;;;-145.46;47.93
76478;BME280;65309;49.790;18.972;2023-07-22T10:39:51;59780.63;;;-145.46;50.17
76478;BME280;65309;49.790;18.972;2023-07-22T10:45:00;59831.06;;;-145.46;48.53
76478;BME280;65309;49.790;18.972;2023-07-22T10:50:07;59810.03;;;-145.46;50.26
76478;BME280;65309;49.790;18.972;2023-07-22T10:55:16;59780.63;;;-145.46;48.81
76478;BME280;65309;49.790;18.972;2023-07-22T11:00:21;59791.13;;;-145.46;49.83
76478;BME280;65309;49.790;18.972;2023-07-22T11:05:47;59770.09;;;-145.46;46.82
76478;BME280;65309;49.790;18.972;2023-07-22T11:10:53;59782.72;;;-145.46;46.14
76478;BME280;65309;49.790;18.972;2023-07-22T11:16:00;59784.81;;;-145.46;48.68
76478;BME280;65309;49.790;18.972;2023-07-22T11:21:07;59797.44;;;-145.46;44.54
76478;BME280;65309;49.790;18.972;2023-07-22T11:26:09;59749.09;;;-145.46;45.38
76478;BME280;65309;49.790;18.972;2023-07-22T11:31:13;59797.44;;;-145.46;45.96
76478;BME280;65309;49.790;18.972;2023-07-22T11:36:15;59770.09;;;-145.46;43.47
76478;BME280;65309;49.790;18.972;2023-07-22T11:41:17;59742.78;;;-145.46;42.25
76478;BME280;65309;49.790;18.972;2023-07-22T11:46:21;59730.16;;;-145.46;40.83
76478;BME280;65309;49.790;18.972;2023-07-22T11:51:24;59742.78;;;-145.46;40.02
76478;BME280;65309;49.790;18.972;2023-07-22T11:56:28;59725.97;;;-145.46;40.23
76478;BME280;65309;49.790;18.972;2023-07-22T12:01:33;59744.88;;;-145.46;40.45
76478;BME280;65309;49.790;18.972;2023-07-22T12:06:35;59780.63;;;-145.46;38.00
76478;BME280;65309;49.790;18.972;2023-07-22T12:11:37;59749.09;;;-145.46;39.82
76478;BME280;65309;49.790;18.972;2023-07-22T12:16:41;59742.78;;;-145.46;39.33
76478;BME280;65309;49.790;18.972;2023-07-22T12:21:44;59782.72;;;-145.46;43.04
76478;BME280;65309;49.790;18.972;2023-07-22T12:26:46;59746.97;;;-145.46;40.60
76478;BME280;65309;49.790;18.972;2023-07-22T12:31:49;59799.53;;;-145.46;40.27
76478;BME280;65309;49.790;18.972;2023-07-22T12:36:51;59789.03;;;-145.46;39.87
76478;BME280;65309;49.790;18.972;2023-07-22T12:41:53;59757.50;;;-145.46;43.17
76478;BME280;65309;49.790;18.972;2023-07-22T12:46:57;59730.16;;;-145.46;40.79
76478;BME280;65309;49.790;18.972;2023-07-22T12:51:59;59746.97;;;-145.46;39.25
76478;BME280;65309;49.790;18.972;2023-07-22T12:57:06;59759.59;;;-145.46;39.46
76478;BME280;65309;49.790;18.972;2023-07-22T13:02:09;59759.59;;;-145.46;39.15
76478;BME280;65309;49.790;18.972;2023-07-22T13:07:11;59721.75;;;-145.46;39.68
76478;BME280;65309;49.790;18.972;2023-07-22T13:12:13;59717.56;;;-145.46;38.60
76478;BME280;65309;49.790;18.972;2023-07-22T13:17:17;59770.09;;;-145.46;39.21
76478;BME280;65309;49.790;18.972;2023-07-22T13:22:19;59807.94;;;-145.46;39.81
76478;BME280;65309;49.790;18.972;2023-07-22T13:27:21;59772.22;;;-145.46;39.29
76478;BME280;65309;49.790;18.972;2023-07-22T13:32:26;59738.56;;;-145.46;39.40
76478;BME280;65309;49.790;18.972;2023-07-22T13:37:28;59826.84;;;-145.46;40.38
76478;BME280;65309;49.790;18.972;2023-07-22T13:42:31;59786.91;;;-145.46;40.18
76478;BME280;65309;49.790;18.972;2023-07-22T13:47:34;59784.81;;;-145.46;39.30
76478;BME280;65309;49.790;18.972;2023-07-22T13:52:37;59789.03;;;-145.46;41.38
76478;BME280;65309;49.790;18.972;2023-07-22T13:57:39;59801.63;;;-145.46;40.04
76478;BME280;65309;49.790;18.972;2023-07-22T14:02:42;59782.72;;;-145.46;40.14
76478;BME280;65309;49.790;18.972;2023-07-22T14:07:44;59789.03;;;-145.46;43.50
76478;BME280;65309;49.790;18.972;2023-07-22T14:12:46;59734.38;;;-145.46;42.91
76478;BME280;65309;49.790;18.972;2023-07-22T14:17:50;59768.00;;;-145.46;44.17
76478;BME280;65309;49.790;18.972;2023-07-22T14:22:54;59789.03;;;-145.46;44.18
76478;BME280;65309;49.790;18.972;2023-07-22T14:27:56;59814.25;;;-145.46;43.75
76478;BME280;65309;49.790;18.972;2023-07-22T14:32:59;59784.81;;;-145.46;44.66
76478;BME280;65309;49.790;18.972;2023-07-22T14:38:01;59768.00;;;-145.46;43.86
76478;BME280;65309;49.790;18.972;2023-07-22T14:43:04;59789.03;;;-145.46;44.32
76478;BME280;65309;49.790;18.972;2023-07-22T14:48:07;59797.44;;;-145.46;45.90
76478;BME280;65309;49.790;18.972;2023-07-22T14:53:09;59763.78;;;-145.46;44.65
76478;BME280;65309;49.790;18.972;2023-07-22T14:58:11;59837.38;;;-145.46;44.66
76478;BME280;65309;49.790;18.972;2023-07-22T15:03:15;59803.75;;;-145.46;44.76
76478;BME280;65309;49.790;18.972;2023-07-22T15:08:17;59778.50;;;-145.46;43.36
76478;BME280;65309;49.790;18.972;2023-07-22T15:13:19;59822.66;;;-145.46;42.37
76478;BME280;65309;49.790;18.972;2023-07-22T15:18:23;59803.75;;;-145.46;42.55
76478;BME280;65309;49.790;18.972;2023-07-22T15:23:25;59805.84;;;-145.46;43.99
76478;BME280;65309;49.790;18.972;2023-07-22T15:28:28;59797.44;;;-145.46;45.52
76478;BME280;65309;49.790;18.972;2023-07-22T15:33:31;59738.56;;;-145.46;46.37
76478;BME280;65309;49.790;18.972;2023-07-22T15:38:33;59784.81;;;-145.46;41.83
76478;BME280;65309;49.790;18.972;2023-07-22T15:43:35;59776.41;;;-145.46;41.30
76478;BME280;65309;49.790;18.972;2023-07-22T15:48:39;59749.09;;;-145.46;43.75
76478;BME280;65309;49.790;18.972;2023-07-22T15:53:41;59725.97;;;-145.46;41.52
76478;BME280;65309;49.790;18.972;2023-07-22T15:58:43;59725.97;;;-145.46;39.96
76478;BME280;65309;49.790;18.972;2023-07-22T16:03:46;59757.50;;;-145.46;39.38
76478;BME280;65309;49.790;18.972;2023-07-22T16:08:48;59740.69;;;-145.46;38.55
76478;BME280;65309;49.790;18.972;2023-07-22T16:13:50;59759.59;;;-145.46;44.01
76478;BME280;65309;49.790;18.972;2023-07-22T16:18:54;59759.59;;;-145.46;48.30
76478;BME280;65309;49.790;18.972;2023-07-22T16:23:56;59746.97;;;-145.46;47.56
76478;BME280;65309;49.790;18.972;2023-07-22T16:28:58;59751.19;;;-145.46;46.06
76478;BME280;65309;49.790;18.972;2023-07-22T16:34:01;59713.34;;;-145.46;42.05
76478;BME280;65309;49.790;18.972;2023-07-22T16:39:03;59717.56;;;-145.46;39.44
76478;BME280;65309;49.790;18.972;2023-07-22T16:44:05;59696.53;;;-145.46;39.16
76478;BME280;65309;49.790;18.972;2023-07-22T16:49:09;59730.16;;;-145.46;41.04
76478;BME280;65309;49.790;18.972;2023-07-22T16:54:11;59704.94;;;-145.46;39.71
76478;BME280;65309;49.790;18.972;2023-07-22T16:59:13;59688.13;;;-145.46;42.23
76478;BME280;65309;49.790;18.972;2023-07-22T17:04:17;59679.72;;;-145.46;41.97
76478;BME280;65309;49.790;18.972;2023-07-22T17:09:19;59761.69;;;-145.46;43.74
76478;BME280;65309;49.790;18.972;2023-07-22T17:14:22;59732.28;;;-145.46;43.43
76478;BME280;65309;49.790;18.972;2023-07-22T17:19:25;59786.91;;;-145.46;44.63
76478;BME280;65309;49.790;18.972;2023-07-22T17:24:28;59797.44;;;-145.46;47.81
76478;BME280;65309;49.790;18.972;2023-07-22T17:29:30;59818.44;;;-145.46;51.26
76478;BME280;65309;49.790;18.972;2023-07-22T17:34:34;59801.63;;;-145.46;54.74
76478;BME280;65309;49.790;18.972;2023-07-22T17:39:36;59818.44;;;-145.46;55.89
76478;BME280;65309;49.790;18.972;2023-07-22T17:44:38;59801.63;;;-145.46;56.95
76478;BME280;65309;49.790;18.972;2023-07-22T17:49:41;59826.84;;;-145.46;56.54
76478;BME280;65309;49.790;18.972;2023-07-22T17:54:44;59843.69;;;-145.46;57.72
76478;BME280;65309;49.790;18.972;2023-07-22T17:59:46;59797.44;;;-145.46;58.44
76478;BME280;65309;49.790;18.972;2023-07-22T18:04:53;59810.03;;;-145.46;59.38
76478;BME280;65309;49.790;18.972;2023-07-22T18:09:55;59831.06;;;-145.46;57.05
76478;BME280;65309;49.790;18.972;2023-07-22T18:14:57;59824.75;;;-145.46;56.59
76478;BME280;65309;49.790;18.972;2023-07-22T18:20:00;59826.84;;;-145.46;56.05
76478;BME280;65309;49.790;18.972;2023-07-22T18:25:03;59805.84;;;-145.46;57.00
76478;BME280;65309;49.790;18.972;2023-07-22T18:30:06;59822.66;;;-145.46;58.40
76478;BME280;65309;49.790;18.972;2023-07-22T18:35:10;59847.88;;;-145.46;60.63
76478;BME280;65309;49.790;18.972;2023-07-22T18:40:12;59868.91;;;-145.46;62.94
76478;BME280;65309;49.790;18.972;2023-07-22T18:45:14;59849.97;;;-145.46;64.76
76478;BME280;65309;49.790;18.972;2023-07-22T18:50:18;59885.72;;;-145.46;65.19
76478;BME280;65309;49.790;18.972;2023-07-22T18:55:22;59877.31;;;-145.46;66.21
76478;BME280;65309;49.790;18.972;2023-07-22T19:00:26;59858.41;;;-145.46;66.61
76478;BME280;65309;49.790;18.972;2023-07-22T19:05:30;59871.00;;;-145.46;67.76
76478;BME280;65309;49.790;18.972;2023-07-22T19:10:32;59847.88;;;-145.46;68.18
76478;BME280;65309;49.790;18.972;2023-07-22T19:15:34;59873.09;;;-145.46;67.13
76478;BME280;65309;49.790;18.972;2023-07-22T19:20:38;59854.19;;;-145.46;66.15
76478;BME280;65309;49.790;18.972;2023-07-22T19:25:40;59871.00;;;-145.46;66.58
76478;BME280;65309;49.790;18.972;2023-07-22T19:30:43;59900.44;;;-145.46;66.36
76478;BME280;65309;49.790;18.972;2023-07-22T19:35:47;59852.09;;;-145.46;66.05
76478;BME280;65309;49.790;18.972;2023-07-22T19:41:03;59877.31;;;-145.46;65.78
76478;BME280;65309;49.790;18.972;2023-07-22T19:46:07;59879.41;;;-145.46;65.46
76478;BME280;65309;49.790;18.972;2023-07-22T19:51:12;59879.41;;;-145.46;65.50
76478;BME280;65309;49.790;18.972;2023-07-22T19:56:15;59843.69;;;-145.46;65.52
76478;BME280;65309;49.790;18.972;2023-07-22T20:01:17;59889.94;;;-145.46;66.78
76478;BME280;65309;49.790;18.972;2023-07-22T20:06:22;59915.16;;;-145.46;68.24
76478;BME280;65309;49.790;18.972;2023-07-22T20:11:24;59894.13;;;-145.46;67.40
76478;BME280;65309;49.790;18.972;2023-07-22T20:16:27;59894.13;;;-145.46;66.58
76478;BME280;65309;49.790;18.972;2023-07-22T20:21:30;59885.72;;;-145.46;66.94
76478;BME280;65309;49.790;18.972;2023-07-22T20:26:32;59877.31;;;-145.46;66.29
76478;BME280;65309;49.790;18.972;2023-07-22T20:31:34;59852.09;;;-145.46;66.44
76478;BME280;65309;49.790;18.972;2023-07-22T20:36:38;59898.34;;;-145.46;66.51
76478;BME280;65309;49.790;18.972;2023-07-22T20:41:40;59873.09;;;-145.46;65.80
76478;BME280;65309;49.790;18.972;2023-07-22T20:46:42;59892.03;;;-145.46;66.11
76478;BME280;65309;49.790;18.972;2023-07-22T20:51:45;59881.50;;;-145.46;65.88
76478;BME280;65309;49.790;18.972;2023-07-22T20:56:47;59894.13;;;-145.46;65.10
76478;BME280;65309;49.790;18.972;2023-07-22T21:01:49;59828.97;;;-145.46;65.96
76478;BME280;65309;49.790;18.972;2023-07-22T21:06:53;59873.09;;;-145.46;68.03
76478;BME280;65309;49.790;18.972;2023-07-22T21:11:55;59898.34;;;-145.46;69.65
76478;BME280;65309;49.790;18.972;2023-07-22T21:16:57;59873.09;;;-145.46;69.69
76478;BME280;65309;49.790;18.972;2023-07-22T21:22:00;59856.28;;;-145.46;68.82
76478;BME280;65309;49.790;18.972;2023-07-22T21:27:05;59871.00;;;-145.46;67.30
76478;BME280;65309;49.790;18.972;2023-07-22T21:32:07;59885.72;;;-145.46;68.07
76478;BME280;65309;49.790;18.972;2023-07-22T21:37:11;59883.63;;;-145.46;68.45
76478;BME280;65309;49.790;18.972;2023-07-22T21:42:13;59917.25;;;-145.46;69.06
76478;BME280;65309;49.790;18.972;2023-07-22T21:47:15;59896.22;;;-145.46;70.85
76478;BME280;65309;49.790;18.972;2023-07-22T21:52:18;59894.13;;;-145.46;70.10
76478;BME280;65309;49.790;18.972;2023-07-22T21:57:20;59919.34;;;-145.46;69.11
76478;BME280;65309;49.790;18.972;2023-07-22T22:02:22;59885.72;;;-145.46;69.45
76478;BME280;65309;49.790;18.972;2023-07-22T22:07:26;59881.50;;;-145.46;69.30
76478;BME280;65309;49.790;18.972;2023-07-22T22:12:28;59913.03;;;-145.46;70.45
76478;BME280;65309;49.790;18.972;2023-07-22T22:17:30;59906.75;;;-145.46;70.26
76478;BME280;65309;49.790;18.972;2023-07-22T22:22:35;59953.00;;;-145.46;70.66
76478;BME280;65309;49.790;18.972;2023-07-22T22:27:37;59931.97;;;-145.46;70.50
76478;BME280;65309;49.790;18.972;2023-07-22T22:32:39;59910.94;;;-145.46;70.37
76478;BME280;65309;49.790;18.972;2023-07-22T22:37:43;59871.00;;;-145.46;70.97
76478;BME280;65309;49.790;18.972;2023-07-22T22:42:45;59892.03;;;-145.46;71.51
76478;BME280;65309;49.790;18.972;2023-07-22T22:47:47;59917.25;;;-145.46;70.57
76478;BME280;65309;49.790;18.972;2023-07-22T22:52:50;59889.94;;;-145.46;70.59
76478;BME280;65309;49.790;18.972;2023-07-22T22:57:52;59908.84;;;-145.46;71.95
76478;BME280;65309;49.790;18.972;2023-07-22T23:02:54;59900.44;;;-145.46;73.15
76478;BME280;65309;49.790;18.972;2023-07-22T23:07:59;59908.84;;;-145.46;73.72
76478;BME280;65309;49.790;18.972;2023-07-22T23:13:01;59885.72;;;-145.46;74.54
76478;BME280;65309;49.790;18.972;2023-07-22T23:18:03;59910.94;;;-145.46;75.15
76478;BME280;65309;49.790;18.972;2023-07-22T23:23:07;59929.88;;;-145.46;75.05
76478;BME280;65309;49.790;18.972;2023-07-22T23:28:09;59883.63;;;-145.46;75.38
76478;BME280;65309;49.790;18.972;2023-07-22T23:33:11;59919.34;;;-145.46;75.35
76478;BME280;65309;49.790;18.972;2023-07-22T23:38:15;59927.75;;;-145.46;74.91
76478;BME280;65309;49.790;18.972;2023-07-22T23:43:17;59934.06;;;-145.46;75.12
76478;BME280;65309;49.790;18.972;2023-07-22T23:48:23;59873.09;;;-145.46;74.46
76478;BME280;65309;49.790;18.972;2023-07-22T23:53:26;59896.22;;;-145.46;73.63
76478;BME280;65309;49.790;18.972;2023-07-22T23:58:28;59910.94;;;-145.46;74.65
